Eaton Park, FL (33840)

12:33 AM EDT on September 24, 2014 (GMT -0400)
Clubhouse Heritage | Change Station
CLOSE
Current Station
Personal Weather Station
Location: Lakeland, FL
Elevation: 157 ft
Nearby Weather Stations

Elev 157 ft 27.97 °N, 81.90 °W | Updated 2 seconds ago

Partly Cloudy
Partly Cloudy
72.4 °F
Feels Like 72.4 °F
N
0.0
Wind Variable Wind from North
Gusts 4.0 mph

Today
High -- | Low -- °F
--% Chance of Precip.
Yesterday
High -- | Low -- °F
Precip. -- in
7:17 AM 7:21 PM
Waning Crescent, 0% visible
Pressure 30.05 in
Visibility 10.0 miles
Clouds Mostly Cloudy 6000 ft
Dew Point 71 °F
Humidity 94%
Rainfall 0.00 in
Snow Depth Not available.
UV 0 out of 12
Pollen 4.90 out of 12
Ozone Good
PM2.5 Good
Flu Activity Not available.
METAR KLAL 240415Z AUTO 06007KT 10SM BKN060 22/22 A3005 RMK AO2

More Conditions Fewer Conditions

Pressure 30.05 in
Visibility 10.0 miles
Clouds Mostly Cloudy 6000 ft
Dew Point 71 °F
Humidity 94%
Rainfall 0.00 in
Snow Depth Not available.
UV 0 out of 12
Pollen 4.90 out of 12
Ozone Good
PM2.5 Good
Flu Activity Not available.
METAR KLAL 240415Z AUTO 06007KT 10SM BKN060 22/22 A3005 RMK AO2

More Conditions Fewer Conditions

10-Day Weather Forecast

Almanac

Astronomy

Sep. 24, 2014 Rise Set
Actual Time 7:17 AM EDT 7:21 PM EDT
Civil Twilight 6:53 AM EDT 7:45 PM EDT
Nautical Twilight 6:26 AM EDT 8:12 PM EDT
Astronomical Twilight 5:58 AM EDT 8:39 PM EDT
Moon 7:32 AM EDT 7:37 PM EDT
Length of Visible Light 12h 51m
Length of Day
12h 04m
Tomorrow will be 1m 39s shorter.
Waning Crescent, 0% of the Moon is Illuminated
Today
Waning Crescent
Sep 24
New
Oct 1
First Quarter
Oct 8
Full
Oct 15
Last Quarter

Today's Extremes

State Highs State Lows

Community

WunderPhotos

Upload Photos

1,755,890 photos uploaded!

WunderBlogs® & News

Nearby

Air Quality

  Air Quality AQ Index Pollutant
Yesterday Good
PM10
Yesterday Good
OZONE
Current Good
PM2.5
Current Good
OZONE
Tuesday Good
PM2.5
Tuesday Good
OZONE
Wednesday Good
PM2.5
Wednesday Good
OZONE

Snow Depth

Station Depth Elevation
No new snow has been reported.

Earthquake Activity

City Distance Mag. Time & Date
No recent earthquake activity has been reported nearby.
Minimum magnitude displayed is 2.5.

Coastal Water Temperatures

Place Temperature
No Stations Reporting

Nearby Weather Stations